createdAt,value
2023-02-11T00:01:26.512Z,102665.31
2023-02-11T00:03:55.035Z,102657.47
2023-02-11T00:06:23.677Z,102674.78
2023-02-11T00:08:51.520Z,102666.22
2023-02-11T00:11:21.617Z,102668.78
2023-02-11T00:13:50.094Z,102649.91
2023-02-11T00:16:20.143Z,102661.19
2023-02-11T00:18:50.363Z,102662.16
2023-02-11T00:21:20.261Z,102651.66
2023-02-11T00:23:48.764Z,102651.72
2023-02-11T00:26:18.649Z,102648.34
2023-02-11T00:28:48.838Z,102649.59
2023-02-11T00:31:17.753Z,102654.84
2023-02-11T00:33:46.176Z,102649.53
2023-02-11T00:36:16.870Z,102657.56
2023-02-11T00:38:48.845Z,102648.88
2023-02-11T00:41:17.731Z,102640.50
2023-02-11T00:43:45.908Z,102649.09
2023-02-11T00:46:14.061Z,102638.53
2023-02-11T00:48:43.092Z,102634.84
2023-02-11T00:51:11.632Z,102628.53
2023-02-11T00:53:40.954Z,102624.91
2023-02-11T00:56:09.428Z,102623.03
2023-02-11T00:58:37.472Z,102632.59
2023-02-11T01:01:05.693Z,102624.00
2023-02-11T01:03:33.492Z,102630.31
2023-02-11T01:06:01.326Z,102632.06
2023-02-11T01:08:29.223Z,102643.53
2023-02-11T01:11:01.108Z,102640.44
2023-02-11T01:13:30.115Z,102643.22
2023-02-11T01:15:58.432Z,102638.97
2023-02-11T01:18:26.838Z,102637.22
2023-02-11T01:20:55.058Z,102627.41
2023-02-11T01:23:24.602Z,102629.94
2023-02-11T01:25:52.814Z,102632.47
2023-02-11T01:28:25.119Z,102635.06
2023-02-11T01:30:54.508Z,102631.75
2023-02-11T01:33:23.403Z,102628.28
2023-02-11T01:35:51.601Z,102624.91
2023-02-11T01:38:21.665Z,102636.91
2023-02-11T01:40:51.127Z,102645.69
2023-02-11T01:43:23.472Z,102648.19
2023-02-11T01:46:05.338Z,102642.88
2023-02-11T01:48:37.219Z,102660.25
2023-02-11T01:51:09.077Z,102643.84
2023-02-11T01:53:55.138Z,102655.16
2023-02-11T01:56:44.370Z,102649.91
2023-02-11T01:59:18.464Z,102637.72
2023-02-11T02:01:51.399Z,102626.72
2023-02-11T02:04:21.183Z,102650.84
2023-02-11T02:06:54.408Z,102643.06
2023-02-11T02:09:26.587Z,102643.22
2023-02-11T02:11:54.380Z,102630.03
2023-02-11T02:14:23.564Z,102626.47
2023-02-11T02:16:54.076Z,102626.50
2023-02-11T02:19:53.652Z,102638.81
2023-02-11T02:22:47.856Z,102642.34
2023-02-11T02:25:36.604Z,102642.34
2023-02-11T02:31:34.320Z,102628.63
2023-02-11T02:34:06.583Z,102633.22
2023-02-11T02:36:41.094Z,102629.63
2023-02-11T02:39:12.690Z,102621.81
2023-02-11T02:41:41.852Z,102623.38
2023-02-11T02:44:10.208Z,102592.34
2023-02-11T02:46:38.548Z,102586.97
2023-02-11T02:49:14.451Z,102596.53
2023-02-11T02:52:15.989Z,102602.63
2023-02-11T02:55:10.642Z,102598.84
2023-02-11T02:57:55.008Z,102591.78
2023-02-11T03:00:29.748Z,102586.53
2023-02-11T03:03:10.557Z,102581.19
2023-02-11T03:05:49.898Z,102581.34
2023-02-11T03:08:24.340Z,102591.69
2023-02-11T03:10:54.418Z,102578.63
2023-02-11T03:13:27.406Z,102589.91
2023-02-11T03:15:58.751Z,102589.88
2023-02-11T03:18:29.884Z,102589.88
2023-02-11T03:21:00.937Z,102593.28
2023-02-11T03:23:31.945Z,102594.16
2023-02-11T03:26:03.981Z,102603.84
2023-02-11T03:28:36.949Z,102600.38
2023-02-11T03:31:15.807Z,102589.66
2023-02-11T03:33:53.144Z,102584.41
2023-02-11T03:36:28.363Z,102568.88
2023-02-11T03:38:59.370Z,102570.22
2023-02-11T03:41:27.418Z,102559.78
2023-02-11T03:43:58.437Z,102556.19
2023-02-11T03:46:32.293Z,102555.19
2023-02-11T03:49:04.778Z,102556.16
2023-02-11T03:51:34.575Z,102568.34
2023-02-11T03:54:06.828Z,102575.47
2023-02-11T03:56:39.394Z,102576.28
2023-02-11T03:59:07.156Z,102571.94
2023-02-11T04:01:35.356Z,102584.09
2023-02-11T04:04:03.186Z,102588.50
2023-02-11T04:06:30.946Z,102592.84
2023-02-11T04:09:00.246Z,102591.03
2023-02-11T04:11:28.069Z,102589.31
2023-02-11T04:13:55.778Z,102587.50
2023-02-11T04:16:23.809Z,102584.88
2023-02-11T04:18:51.557Z,102574.31
2023-02-11T04:21:19.552Z,102567.78
2023-02-11T04:23:47.253Z,102555.34
2023-02-11T04:26:16.584Z,102569.28
2023-02-11T04:28:44.333Z,102549.00
2023-02-11T04:31:12.856Z,102557.81
2023-02-11T04:33:40.625Z,102542.91
2023-02-11T04:36:09.273Z,102546.38
2023-02-11T04:38:37.188Z,102555.19
2023-02-11T04:41:04.944Z,102548.06
2023-02-11T04:43:33.999Z,102560.44
2023-02-11T04:46:01.690Z,102558.66
2023-02-11T04:48:29.476Z,102555.19
2023-02-11T04:50:57.339Z,102548.22
2023-02-11T04:53:25.113Z,102545.59
2023-02-11T04:55:53.318Z,102547.19
2023-02-11T04:58:21.541Z,102534.53
2023-02-11T05:00:50.802Z,102548.16
2023-02-11T05:03:18.760Z,102556.09
2023-02-11T05:05:46.568Z,102556.72
2023-02-11T05:08:17.161Z,102568.09
2023-02-11T05:10:47.967Z,102568.09
2023-02-11T05:13:15.958Z,102559.28
2023-02-11T05:15:43.656Z,102551.47
2023-02-11T05:18:14.746Z,102559.22
2023-02-11T05:20:42.674Z,102549.63
2023-02-11T05:23:10.750Z,102535.09
2023-02-11T05:25:39.298Z,102563.59
2023-02-11T05:28:07.641Z,102558.31
2023-02-11T05:30:35.510Z,102560.97
2023-02-11T05:33:03.266Z,102556.59
2023-02-11T05:35:32.424Z,102548.66
2023-02-11T05:38:00.137Z,102548.66
2023-02-11T05:40:27.934Z,102558.25
2023-02-11T05:42:55.565Z,102554.03
2023-02-11T05:45:23.288Z,102525.72
2023-02-11T05:47:50.977Z,102549.56
2023-02-11T05:50:18.825Z,102553.16
2023-02-11T05:52:47.948Z,102551.34
2023-02-11T05:55:16.001Z,102549.63
2023-02-11T05:57:43.729Z,102542.66
2023-02-11T06:00:12.721Z,102529.63
2023-02-11T06:02:41.326Z,102519.44
2023-02-11T06:05:10.143Z,102527.00
2023-02-11T06:07:37.947Z,102531.34
2023-02-11T06:10:08.664Z,102515.69
2023-02-11T06:12:38.044Z,102526.09
2023-02-11T06:15:17.505Z,102527.75
2023-02-11T06:17:45.241Z,102527.91
2023-02-11T06:20:13.475Z,102532.41
2023-02-11T06:22:41.208Z,102532.28
2023-02-11T06:25:11.156Z,102537.56
2023-02-11T06:27:39.795Z,102521.16
2023-02-11T06:30:09.076Z,102538.25
2023-02-11T06:32:44.555Z,102528.81
2023-02-11T06:35:14.047Z,102533.00
2023-02-11T06:37:47.932Z,102534.78
2023-02-11T06:40:17.216Z,102535.63
2023-02-11T06:42:44.990Z,102536.59
2023-02-11T06:45:13.305Z,102538.25
2023-02-11T06:47:41.987Z,102537.41
2023-02-11T06:50:17.436Z,102547.09
2023-02-11T06:52:45.194Z,102552.34
2023-02-11T06:55:15.339Z,102556.72
2023-02-11T06:57:44.465Z,102561.91
2023-02-11T07:00:14.122Z,102554.97
2023-02-11T07:02:41.991Z,102560.97
2023-02-11T07:05:10.544Z,102559.28
2023-02-11T07:07:41.109Z,102556.78
2023-02-11T07:10:09.429Z,102560.38
2023-02-11T07:12:37.210Z,102563.97
2023-02-11T07:15:06.796Z,102541.00
2023-02-11T07:17:35.783Z,102563.16
2023-02-11T07:20:03.554Z,102568.19
2023-02-11T07:22:31.377Z,102562.13
2023-02-11T07:24:59.128Z,102563.06
2023-02-11T07:27:27.134Z,102575.16
2023-02-11T07:29:54.947Z,102580.63
2023-02-11T07:32:24.132Z,102580.63
2023-02-11T07:34:51.971Z,102582.19
2023-02-11T07:37:19.771Z,102582.13
2023-02-11T07:39:47.524Z,102586.47
2023-02-11T07:42:15.298Z,102589.91
2023-02-11T07:44:43.243Z,102593.41
2023-02-11T07:47:11.040Z,102583.84
2023-02-11T07:49:40.142Z,102584.75
2023-02-11T07:52:07.856Z,102585.63
2023-02-11T07:54:38.685Z,102589.09
2023-02-11T07:57:06.619Z,102596.03
2023-02-11T07:59:34.905Z,102598.53
2023-02-11T08:02:02.772Z,102600.38
2023-02-11T08:04:33.580Z,102601.41
2023-02-11T08:07:02.798Z,102616.13
2023-02-11T08:09:32.782Z,102613.50
2023-02-11T08:12:02.250Z,102613.50
2023-02-11T08:14:29.996Z,102607.13
2023-02-11T08:16:57.808Z,102609.84
2023-02-11T08:19:25.620Z,102620.53
2023-02-11T08:21:56.285Z,102605.56
2023-02-11T08:24:25.523Z,102613.41
2023-02-11T08:26:53.719Z,102601.19
2023-02-11T08:29:21.450Z,102606.22
2023-02-11T08:31:49.691Z,102597.59
2023-02-11T08:34:19.262Z,102608.13
2023-02-11T08:36:48.533Z,102612.78
2023-02-11T08:39:20.511Z,102618.03
2023-02-11T08:41:51.421Z,102611.69
2023-02-11T08:44:20.054Z,102620.34
2023-02-11T08:46:48.131Z,102621.50
2023-02-11T08:49:16.377Z,102615.22
2023-02-11T08:51:44.716Z,102615.09
2023-02-11T08:54:12.650Z,102630.88
2023-02-11T08:56:41.104Z,102615.97
2023-02-11T08:59:13.830Z,102635.91
2023-02-11T09:01:41.743Z,102640.31
2023-02-11T09:04:11.028Z,102647.13
2023-02-11T09:06:38.881Z,102654.34
2023-02-11T09:09:06.792Z,102654.28
2023-02-11T09:11:36.691Z,102655.88
2023-02-11T09:14:05.338Z,102657.53
2023-02-11T09:16:37.358Z,102658.34
2023-02-11T09:19:06.467Z,102658.38
2023-02-11T09:21:34.723Z,102661.75
2023-02-11T09:24:02.689Z,102667.97
2023-02-11T09:26:32.400Z,102670.59
2023-02-11T09:29:01.608Z,102666.97
2023-02-11T09:31:31.610Z,102672.13
2023-02-11T09:34:03.657Z,102649.84
2023-02-11T09:36:33.286Z,102668.72
2023-02-11T09:39:02.492Z,102668.69
2023-02-11T09:42:05.571Z,102660.63
2023-02-11T09:44:35.470Z,102661.72
2023-02-11T09:47:06.069Z,102658.19
2023-02-11T09:49:41.779Z,102669.44
2023-02-11T09:52:20.189Z,102678.16
2023-02-11T09:54:55.857Z,102678.28
2023-02-11T09:57:30.457Z,102676.44
2023-02-11T09:59:58.460Z,102683.13
2023-02-11T10:02:33.516Z,102667.59
2023-02-11T10:05:18.799Z,102690.00
2023-02-11T10:07:52.858Z,102694.38
2023-02-11T10:10:38.871Z,102697.94
2023-02-11T10:13:28.429Z,102665.69
2023-02-11T10:16:02.934Z,102703.22
2023-02-11T10:18:47.084Z,102706.78
2023-02-11T10:21:24.732Z,102694.84
2023-02-11T10:23:57.848Z,102714.50
2023-02-11T10:26:30.863Z,102689.59
2023-02-11T10:29:06.533Z,102703.94
2023-02-11T10:31:40.771Z,102697.81
2023-02-11T10:34:12.263Z,102687.41
2023-02-11T10:36:43.786Z,102680.56
2023-02-11T10:39:14.387Z,102698.63
2023-02-11T10:41:45.035Z,102702.16
2023-02-11T10:44:24.233Z,102710.72
2023-02-11T10:46:54.767Z,102708.38
2023-02-11T10:49:36.249Z,102721.22
2023-02-11T10:52:24.016Z,102690.25
2023-02-11T10:55:16.282Z,102701.59
2023-02-11T10:57:56.564Z,102699.81
2023-02-11T11:00:38.161Z,102687.19
2023-02-11T11:03:16.140Z,102694.94
2023-02-11T11:05:49.358Z,102708.38
2023-02-11T11:08:20.129Z,102695.53
2023-02-11T11:10:49.798Z,102712.75
2023-02-11T11:13:29.669Z,102699.25
2023-02-11T11:16:25.883Z,102709.34
2023-02-11T11:18:55.422Z,102699.88
2023-02-11T11:21:25.915Z,102712.91
2023-02-11T11:23:58.275Z,102705.75
2023-02-11T11:26:28.467Z,102699.78
2023-02-11T11:28:59.930Z,102693.47
2023-02-11T11:31:31.376Z,102695.22
2023-02-11T11:34:02.141Z,102701.41
2023-02-11T11:36:37.604Z,102695.06
2023-02-11T11:39:21.553Z,102696.88
2023-02-11T11:41:52.704Z,102706.38
2023-02-11T11:44:26.982Z,102697.75
2023-02-11T11:47:10.334Z,102697.91
2023-02-11T11:49:43.896Z,102696.88
2023-02-11T11:52:21.619Z,102694.50
2023-02-11T11:54:56.581Z,102694.56
2023-02-11T11:57:28.640Z,102687.41
2023-02-11T11:59:56.975Z,102689.81
2023-02-11T12:02:53.566Z,102700.53
2023-02-11T12:05:28.846Z,102698.06
2023-02-11T12:08:08.760Z,102694.50
2023-02-11T12:10:52.451Z,102696.13
2023-02-11T12:13:30.767Z,102688.31
2023-02-11T12:16:09.946Z,102692.59
2023-02-11T12:18:57.871Z,102688.41
2023-02-11T12:21:36.090Z,102692.00
2023-02-11T12:24:17.265Z,102698.81
2023-02-11T12:26:50.798Z,102687.34
2023-02-11T12:29:28.780Z,102688.94
2023-02-11T12:32:08.843Z,102693.34
2023-02-11T12:35:02.499Z,102689.81
2023-02-11T12:37:43.238Z,102687.97
2023-02-11T12:40:19.271Z,102695.06
2023-02-11T12:43:15.182Z,102689.44
2023-02-11T12:46:12.817Z,102689.31
2023-02-11T12:48:53.401Z,102685.75
2023-02-11T12:51:33.396Z,102687.56
2023-02-11T12:54:16.987Z,102686.03
2023-02-11T12:56:51.589Z,102687.72
2023-02-11T12:59:35.944Z,102686.94
2023-02-11T13:02:13.634Z,102673.88
2023-02-11T13:04:47.416Z,102673.00
2023-02-11T13:07:20.868Z,102675.53
2023-02-11T13:09:54.355Z,102674.47
2023-02-11T13:12:40.444Z,102673.66
2023-02-11T13:15:15.334Z,102674.47
2023-02-11T13:17:53.206Z,102682.25
2023-02-11T13:20:33.766Z,102663.34
2023-02-11T13:23:10.112Z,102677.09
2023-02-11T13:25:44.150Z,102672.75
2023-02-11T13:28:26.803Z,102668.41
2023-02-11T13:31:02.776Z,102672.63
2023-02-11T13:33:39.418Z,102668.50
2023-02-11T13:36:24.197Z,102662.94
2023-02-11T13:38:55.259Z,102673.09
2023-02-11T13:41:28.743Z,102665.03
2023-02-11T13:44:02.360Z,102675.56
2023-02-11T13:46:54.358Z,102679.03
2023-02-11T13:49:25.605Z,102671.31
2023-02-11T13:51:55.004Z,102666.28
2023-02-11T13:54:31.260Z,102671.66
2023-02-11T13:57:30.592Z,102663.81
2023-02-11T13:59:59.453Z,102664.56
2023-02-11T14:02:49.610Z,102667.84
2023-02-11T14:05:44.050Z,102664.28
2023-02-11T14:08:40.948Z,102667.59
2023-02-11T14:11:14.696Z,102670.28
2023-02-11T14:14:04.247Z,102670.19
2023-02-11T14:16:38.346Z,102674.63
2023-02-11T14:19:09.583Z,102667.44
2023-02-11T14:21:45.177Z,102669.94
2023-02-11T14:24:46.465Z,102667.38
2023-02-11T14:27:21.462Z,102663.81
2023-02-11T14:30:03.403Z,102663.56
2023-02-11T14:32:43.216Z,102674.03
2023-02-11T14:35:21.931Z,102671.56
2023-02-11T14:37:58.300Z,102680.38
2023-02-11T14:40:31.916Z,102676.66
2023-02-11T14:43:08.694Z,102669.75
2023-02-11T14:45:38.151Z,102676.41
2023-02-11T14:48:08.825Z,102675.41
2023-02-11T14:50:44.572Z,102671.97
2023-02-11T14:53:16.436Z,102677.13
2023-02-11T14:55:47.081Z,102679.75
2023-02-11T14:58:17.490Z,102675.41
2023-02-11T15:00:56.883Z,102664.34
2023-02-11T15:03:29.539Z,102694.69
2023-02-11T15:06:01.265Z,102689.63
2023-02-11T15:08:31.840Z,102683.47
2023-02-11T15:11:01.933Z,102686.94
2023-02-11T15:13:32.106Z,102679.00
2023-02-11T15:16:06.577Z,102687.00
2023-02-11T15:18:38.538Z,102680.69
2023-02-11T15:21:09.200Z,102680.69
2023-02-11T15:23:56.841Z,102687.53
2023-02-11T15:26:28.367Z,102679.00
2023-02-11T15:28:56.384Z,102690.97
2023-02-11T15:31:26.148Z,102690.97
2023-02-11T15:33:54.829Z,102697.94
2023-02-11T15:36:32.643Z,102705.91
2023-02-11T15:39:20.907Z,102707.56
2023-02-11T15:41:48.638Z,102712.88
2023-02-11T15:44:30.165Z,102715.56
2023-02-11T15:46:58.721Z,102715.56
2023-02-11T15:49:27.457Z,102712.25
2023-02-11T15:51:58.555Z,102709.63
2023-02-11T15:54:29.509Z,102714.97
2023-02-11T15:57:02.773Z,102713.97
2023-02-11T15:59:35.351Z,102716.53
2023-02-11T16:02:09.794Z,102710.41
2023-02-11T16:04:38.317Z,102712.25
2023-02-11T16:07:07.488Z,102712.25
2023-02-11T16:09:37.074Z,102706.44
2023-02-11T16:12:23.350Z,102714.13
2023-02-11T16:14:51.051Z,102720.22
2023-02-11T16:17:27.176Z,102723.03
2023-02-11T16:19:55.841Z,102733.38
2023-02-11T16:22:28.056Z,102730.75
2023-02-11T16:24:59.084Z,102735.16
2023-02-11T16:27:30.381Z,102728.19
2023-02-11T16:29:59.338Z,102734.31
2023-02-11T16:32:29.195Z,102720.56
2023-02-11T16:34:58.846Z,102730.00
2023-02-11T16:37:28.307Z,102731.84
2023-02-11T16:39:56.157Z,102731.84
2023-02-11T16:42:24.367Z,102731.03
2023-02-11T16:44:52.052Z,102740.75
2023-02-11T16:47:25.936Z,102750.47
2023-02-11T16:49:54.122Z,102735.63
2023-02-11T16:52:22.479Z,102745.16
2023-02-11T16:54:51.942Z,102753.13
2023-02-11T16:57:21.545Z,102753.16
2023-02-11T16:59:49.672Z,102750.63
2023-02-11T17:02:24.167Z,102748.66
2023-02-11T17:04:53.661Z,102739.41
2023-02-11T17:07:21.952Z,102758.38
2023-02-11T17:09:51.697Z,102748.09
2023-02-11T17:12:21.415Z,102753.16
2023-02-11T17:14:49.432Z,102748.97
2023-02-11T17:17:17.513Z,102756.75
2023-02-11T17:19:45.331Z,102759.28
2023-02-11T17:22:13.066Z,102759.38
2023-02-11T17:24:40.822Z,102773.28
2023-02-11T17:27:11.398Z,102773.28
2023-02-11T17:29:42.311Z,102749.19
2023-02-11T17:32:10.080Z,102766.31
2023-02-11T17:34:37.890Z,102768.91
2023-02-11T17:37:09.136Z,102770.66
2023-02-11T17:39:37.201Z,102762.28
2023-02-11T17:42:05.921Z,102775.06
2023-02-11T17:44:35.651Z,102765.66
2023-02-11T17:47:03.420Z,102774.31
2023-02-11T17:49:31.192Z,102770.88
2023-02-11T17:51:58.972Z,102783.81
2023-02-11T17:54:26.727Z,102789.13
2023-02-11T17:56:57.137Z,102788.22
2023-02-11T17:59:26.485Z,102788.38
2023-02-11T18:01:55.593Z,102795.25
2023-02-11T18:04:23.355Z,102796.13
2023-02-11T18:06:53.501Z,102799.59
2023-02-11T18:09:21.296Z,102800.59
2023-02-11T18:11:50.472Z,102806.63
2023-02-11T18:14:18.144Z,102799.75
2023-02-11T18:16:47.453Z,102811.97
2023-02-11T18:19:16.660Z,102804.16
2023-02-11T18:21:44.348Z,102808.56
2023-02-11T18:24:12.103Z,102797.28
2023-02-11T18:26:39.746Z,102811.03
2023-02-11T18:29:07.544Z,102802.38
2023-02-11T18:31:36.295Z,102803.16
2023-02-11T18:34:05.529Z,102816.38
2023-02-11T18:36:34.973Z,102807.91
2023-02-11T18:39:02.668Z,102821.69
2023-02-11T18:41:30.765Z,102814.66
2023-02-11T18:44:02.665Z,102814.53
2023-02-11T18:46:31.335Z,102812.81
2023-02-11T18:48:59.153Z,102821.66
2023-02-11T18:51:27.247Z,102816.50
2023-02-11T18:53:56.296Z,102809.41
2023-02-11T18:56:27.699Z,102822.50
2023-02-11T18:58:56.500Z,102820.78
2023-02-11T19:01:27.287Z,102818.16
2023-02-11T19:03:57.187Z,102814.88
2023-02-11T19:06:27.360Z,102818.94
2023-02-11T19:09:00.097Z,102808.72
2023-02-11T19:11:42.568Z,102823.16
2023-02-11T19:14:11.177Z,102833.78
2023-02-11T19:16:39.753Z,102819.13
2023-02-11T19:19:08.345Z,102832.03
2023-02-11T19:21:36.846Z,102826.66
2023-02-11T19:24:08.944Z,102808.00
2023-02-11T19:26:37.406Z,102832.88
2023-02-11T19:29:05.962Z,102837.28
2023-02-11T19:31:34.210Z,102836.44
2023-02-11T19:34:03.099Z,102849.63
2023-02-11T19:36:31.141Z,102844.25
2023-02-11T19:39:02.333Z,102849.63
2023-02-11T19:41:32.351Z,102844.63
2023-02-11T19:44:00.190Z,102843.00
2023-02-11T19:46:30.008Z,102839.47
2023-02-11T19:48:57.962Z,102844.84
2023-02-11T19:51:25.671Z,102851.00
2023-02-11T19:53:53.911Z,102850.00
2023-02-11T19:56:22.378Z,102857.81
2023-02-11T19:58:51.474Z,102859.69
2023-02-11T20:01:21.553Z,102860.63
2023-02-11T20:03:50.876Z,102862.22
2023-02-11T20:06:20.447Z,102863.13
2023-02-11T20:08:48.223Z,102851.91
2023-02-11T20:11:17.978Z,102852.97
2023-02-11T20:13:45.731Z,102862.22
2023-02-11T20:16:17.559Z,102844.84
2023-02-11T20:18:46.591Z,102850.09
2023-02-11T20:21:16.008Z,102862.22
2023-02-11T20:23:46.483Z,102853.53
2023-02-11T20:26:17.807Z,102873.56
2023-02-11T20:28:46.363Z,102867.38
2023-02-11T20:31:16.015Z,102874.47
2023-02-11T20:33:44.641Z,102874.69
2023-02-11T20:36:16.176Z,102874.69
2023-02-11T20:38:44.728Z,102879.06
2023-02-11T20:41:16.472Z,102877.31
2023-02-11T20:43:46.519Z,102877.19
2023-02-11T20:46:18.054Z,102891.38
2023-02-11T20:48:46.026Z,102882.75
2023-02-11T20:51:15.595Z,102886.41
2023-02-11T20:53:47.951Z,102886.41
2023-02-11T20:56:19.220Z,102890.84
2023-02-11T20:58:47.816Z,102896.13
2023-02-11T21:01:19.440Z,102900.56
2023-02-11T21:03:51.231Z,102897.13
2023-02-11T21:06:19.793Z,102893.59
2023-02-11T21:08:47.985Z,102904.88
2023-02-11T21:11:16.268Z,102894.59
2023-02-11T21:13:44.085Z,102898.63
2023-02-11T21:16:15.104Z,102895.00
2023-02-11T21:18:44.285Z,102897.63
2023-02-11T21:21:14.426Z,102890.69
2023-02-11T21:23:42.223Z,102899.25
2023-02-11T21:26:10.260Z,102901.84
2023-02-11T21:28:40.803Z,102903.59
2023-02-11T21:31:10.762Z,102895.22
2023-02-11T21:33:39.039Z,102908.06
2023-02-11T21:36:08.694Z,102885.59
2023-02-11T21:38:36.563Z,102905.50
2023-02-11T21:41:05.024Z,102909.09
2023-02-11T21:43:35.588Z,102915.28
2023-02-11T21:46:08.897Z,102917.22
2023-02-11T21:48:36.640Z,102922.41
2023-02-11T21:51:06.209Z,102929.44
2023-02-11T21:53:35.848Z,102918.16
2023-02-11T21:56:05.809Z,102921.72
2023-02-11T21:58:36.297Z,102922.69
2023-02-11T22:01:12.267Z,102915.78
2023-02-11T22:03:40.403Z,102918.94
2023-02-11T22:06:10.042Z,102915.50
2023-02-11T22:08:40.310Z,102923.31
2023-02-11T22:11:10.357Z,102907.06
2023-02-11T22:13:38.359Z,102929.72
2023-02-11T22:16:10.906Z,102929.81
2023-02-11T22:18:39.680Z,102914.06
2023-02-11T22:21:09.914Z,102921.03
2023-02-11T22:23:40.470Z,102915.72
2023-02-11T22:26:10.251Z,102924.28
2023-02-11T22:28:40.515Z,102919.78
2023-02-11T22:31:12.078Z,102926.75
2023-02-11T22:33:41.166Z,102917.22
2023-02-11T22:36:13.434Z,102930.25
2023-02-11T22:38:42.617Z,102924.06
2023-02-11T22:41:12.428Z,102925.88
2023-02-11T22:43:42.020Z,102925.88
2023-02-11T22:46:11.832Z,102909.59
2023-02-11T22:48:39.694Z,102925.16
2023-02-11T22:51:09.118Z,102931.31
2023-02-11T22:53:37.340Z,102902.03
2023-02-11T22:56:08.681Z,102925.28
2023-02-11T22:58:37.577Z,102938.47
2023-02-11T23:01:06.481Z,102935.84
2023-02-11T23:03:34.973Z,102936.81
2023-02-11T23:06:02.777Z,102935.09
2023-02-11T23:08:31.860Z,102946.47
2023-02-11T23:11:06.448Z,102945.69
2023-02-11T23:13:35.640Z,102946.56
2023-02-11T23:16:06.208Z,102950.84
2023-02-11T23:18:34.315Z,102950.97
2023-02-11T23:21:06.748Z,102954.50
2023-02-11T23:23:35.204Z,102951.88
2023-02-11T23:26:03.795Z,102941.41
2023-02-11T23:28:33.004Z,102946.66
2023-02-11T23:31:00.782Z,102942.59
2023-02-11T23:33:28.805Z,102952.09
2023-02-11T23:35:56.763Z,102963.34
2023-02-11T23:38:24.760Z,102965.00
2023-02-11T23:40:52.564Z,102965.91
2023-02-11T23:43:22.739Z,102964.16
2023-02-11T23:45:53.667Z,102952.88
2023-02-11T23:48:22.928Z,102958.34
2023-02-11T23:50:50.716Z,102965.97
2023-02-11T23:53:18.452Z,102961.56
2023-02-11T23:55:47.455Z,102965.97
2023-02-11T23:58:16.112Z,102942.72
